Time;durP1;ratioP1;P1;durP2;ratioP2;P2;SDS_P1;SDS_P2;PMS_P1;PMS_P2;Temp;Humidity;BMP_temperature;BMP_pressure;BME280_temperature;BME280_humidity;BME280_pressure;Samples;Min_cycle;Max_cycle;Signal;HPM_P1;HPM_P2
2023/08/05 00:01:32;;;;;;;11.67;6.80;;;;;12.70;101208.00;;;;10252186;28;20767;-77
2023/08/05 00:06:33;;;;;;;12.00;6.63;;;;;12.70;101199.00;;;;10269340;28;20230;-77
2023/08/05 00:11:35;;;;;;;11.50;7.10;;;;;12.70;101186.00;;;;10264424;28;21545;-77
2023/08/05 00:16:36;;;;;;;11.73;8.10;;;;;12.70;101192.00;;;;10251093;28;20199;-77
2023/08/05 00:21:38;;;;;;;13.67;6.93;;;;;12.70;101187.00;;;;10249645;28;20307;-76
2023/08/05 00:26:39;;;;;;;8.17;6.70;;;;;12.60;101199.00;;;;10246415;28;20644;-77
2023/08/05 00:31:40;;;;;;;9.40;7.00;;;;;12.60;101187.00;;;;10251422;28;20215;-76
2023/08/05 00:36:42;;;;;;;15.20;7.90;;;;;12.60;101174.00;;;;10268294;28;21856;-77
2023/08/05 00:41:43;;;;;;;16.20;7.67;;;;;12.60;101185.00;;;;10267602;28;20910;-77
2023/08/05 00:46:45;;;;;;;12.40;7.93;;;;;12.50;101159.00;;;;10249825;28;20389;-77
2023/08/05 00:51:47;;;;;;;15.57;8.13;;;;;12.50;101168.00;;;;10267794;28;20221;-77
2023/08/05 00:56:49;;;;;;;15.90;7.60;;;;;12.50;101160.00;;;;10248174;28;20345;-77
2023/08/05 01:01:50;;;;;;;11.93;8.20;;;;;12.40;101161.00;;;;10248783;28;20246;-80
2023/08/05 01:06:53;;;;;;;10.53;7.70;;;;;12.40;101151.00;;;;10252746;28;20238;-81
2023/08/05 01:11:54;;;;;;;11.80;7.37;;;;;12.30;101161.00;;;;10272348;28;20309;-80
2023/08/05 01:16:58;;;;;;;10.27;7.83;;;;;12.30;101164.00;;;;10254046;28;20461;-80
2023/08/05 01:22:18;;;;;;;12.27;8.37;;;;;12.20;101170.00;;;;10235341;28;21359;-81
2023/08/05 01:27:21;;;;;;;11.13;7.13;;;;;12.20;101171.00;;;;10255004;28;20317;-81
2023/08/05 01:32:24;;;;;;;14.47;7.80;;;;;12.10;101165.00;;;;10270781;28;20234;-80
2023/08/05 01:37:25;;;;;;;18.07;8.00;;;;;12.00;101164.00;;;;10270760;28;20728;-81
2023/08/05 01:42:27;;;;;;;15.13;8.13;;;;;12.00;101155.00;;;;10273283;28;20306;-80
2023/08/05 01:47:28;;;;;;;11.27;7.70;;;;;12.00;101154.00;;;;10277346;28;20434;-81
2023/08/05 01:52:30;;;;;;;15.47;9.37;;;;;12.00;101143.00;;;;10263931;28;20914;-81
2023/08/05 01:57:31;;;;;;;14.73;10.07;;;;;12.10;101141.00;;;;10275538;28;20786;-80
2023/08/05 02:02:32;;;;;;;12.87;8.20;;;;;12.10;101135.00;;;;10261344;28;21288;-81
2023/08/05 02:07:34;;;;;;;12.10;8.83;;;;;12.00;101128.00;;;;10258168;28;20613;-79
2023/08/05 02:12:36;;;;;;;16.03;8.87;;;;;12.00;101117.00;;;;10276853;28;20238;-81
2023/08/05 02:17:38;;;;;;;13.50;8.73;;;;;12.00;101113.00;;;;10261334;28;20255;-80
2023/08/05 02:22:40;;;;;;;17.10;8.97;;;;;12.00;101105.00;;;;10244813;28;20310;-79
2023/08/05 02:27:41;;;;;;;17.77;9.90;;;;;12.00;101090.00;;;;10259678;28;20608;-79
2023/08/05 02:32:43;;;;;;;13.60;9.77;;;;;12.10;101082.00;;;;10259881;28;20257;-79
2023/08/05 02:37:45;;;;;;;15.27;9.33;;;;;12.10;101080.00;;;;10240408;28;21561;-80
2023/08/05 02:42:47;;;;;;;12.93;8.90;;;;;12.10;101081.00;;;;10258066;28;20651;-81
2023/08/05 02:47:48;;;;;;;12.87;8.60;;;;;12.10;101081.00;;;;10258192;28;20290;-80
2023/08/05 02:52:50;;;;;;;15.13;9.47;;;;;12.00;101069.00;;;;10274629;28;20851;-81
2023/08/05 02:57:51;;;;;;;10.33;9.27;;;;;12.00;101064.00;;;;10275983;28;20215;-80
2023/08/05 03:02:53;;;;;;;16.10;10.43;;;;;12.00;101066.00;;;;10274935;28;20207;-80
2023/08/05 03:07:55;;;;;;;17.23;11.47;;;;;12.10;101066.00;;;;10254459;28;21424;-80
2023/08/05 03:12:57;;;;;;;16.77;10.53;;;;;12.20;101070.00;;;;10257862;28;20296;-81
2023/08/05 03:17:58;;;;;;;15.73;11.30;;;;;12.20;101059.00;;;;10258296;28;20295;-80
2023/08/05 03:23:00;;;;;;;18.90;11.67;;;;;12.30;101050.00;;;;10255192;28;20219;-80
2023/08/05 03:28:03;;;;;;;18.47;12.20;;;;;12.30;101027.00;;;;10253863;28;20212;-80
2023/08/05 03:33:08;;;;;;;17.83;11.87;;;;;12.30;101042.00;;;;10256134;28;20902;-80
2023/08/05 03:38:11;;;;;;;17.03;12.03;;;;;12.40;101056.00;;;;10240840;28;21703;-79
2023/08/05 03:43:12;;;;;;;16.63;11.20;;;;;12.30;101038.00;;;;10254241;28;20757;-80
2023/08/05 03:48:14;;;;;;;16.27;11.03;;;;;12.30;101037.00;;;;10255395;28;20232;-80
2023/08/05 03:53:15;;;;;;;15.63;9.83;;;;;12.30;101025.00;;;;10257512;28;20322;-80
2023/08/05 03:58:19;;;;;;;14.67;9.50;;;;;12.30;101010.00;;;;10252006;28;20532;-80
2023/08/05 04:03:24;;;;;;;16.93;9.47;;;;;12.30;101013.00;;;;10238158;28;20315;-80
2023/08/05 04:08:26;;;;;;;15.40;9.50;;;;;12.40;101005.00;;;;10236940;28;21267;-81
2023/08/05 04:13:28;;;;;;;12.17;8.80;;;;;12.50;101010.00;;;;10253330;28;20281;-80
2023/08/05 04:18:37;;;;;;;15.63;8.63;;;;;12.50;101006.00;;;;10238872;28;20472;-80
2023/08/05 04:23:39;;;;;;;15.27;9.13;;;;;12.50;100992.00;;;;10253918;28;20286;-80
2023/08/05 04:28:41;;;;;;;11.63;8.23;;;;;12.50;100978.00;;;;10253660;28;20214;-81
2023/08/05 04:33:43;;;;;;;13.43;9.13;;;;;12.50;100973.00;;;;10271006;28;20204;-80
2023/08/05 04:38:44;;;;;;;12.17;8.93;;;;;12.40;100964.00;;;;10249521;28;20924;-79
2023/08/05 04:43:45;;;;;;;11.27;8.77;;;;;12.50;100943.00;;;;10270539;28;20299;-80
2023/08/05 04:48:47;;;;;;;15.97;9.40;;;;;12.70;100945.00;;;;10250992;28;20861;-81
2023/08/05 04:53:48;;;;;;;16.30;9.93;;;;;13.00;100955.00;;;;10269085;28;20215;-80
2023/08/05 04:58:49;;;;;;;15.83;9.17;;;;;13.20;100935.00;;;;10248434;28;20784;-79
2023/08/05 05:03:51;;;;;;;17.33;9.73;;;;;13.50;100920.00;;;;10267157;28;20227;-80
2023/08/05 05:08:53;;;;;;;13.50;8.80;;;;;13.60;100927.00;;;;10250666;28;20200;-81
2023/08/05 05:13:56;;;;;;;12.27;8.90;;;;;13.70;100932.00;;;;10267558;28;20238;-81
2023/08/05 05:18:57;;;;;;;16.57;8.80;;;;;13.80;100916.00;;;;10265671;28;20219;-80
2023/08/05 05:23:58;;;;;;;11.17;8.03;;;;;14.00;100914.00;;;;10265567;28;20849;-81
2023/08/05 05:29:00;;;;;;;11.82;7.60;;;;;14.10;100909.00;;;;10264958;28;20640;-79
2023/08/05 05:34:01;;;;;;;14.07;7.63;;;;;14.30;100892.00;;;;10246184;28;20222;-80
2023/08/05 05:39:03;;;;;;;9.57;6.90;;;;;14.50;100893.00;;;;10264542;28;21313;-80
2023/08/05 05:44:04;;;;;;;12.35;7.38;;;;;14.60;100903.00;;;;10263275;28;20297;-80
2023/08/05 05:49:06;;;;;;;11.88;6.85;;;;;14.70;100901.00;;;;10264451;28;21245;-79
2023/08/05 05:54:08;;;;;;;9.20;6.68;;;;;14.80;100891.00;;;;10247201;28;20272;-81
2023/08/05 05:59:09;;;;;;;11.77;6.03;;;;;14.90;100889.00;;;;10262110;28;20273;-81
2023/08/05 06:04:11;;;;;;;9.43;6.28;;;;;15.10;100898.00;;;;10245512;28;20258;-81
2023/08/05 06:09:13;;;;;;;8.77;5.78;;;;;15.20;100897.00;;;;10262768;28;20800;-79
2023/08/05 06:14:14;;;;;;;8.30;5.75;;;;;15.40;100905.00;;;;10230862;28;21364;-80
2023/08/05 06:19:15;;;;;;;6.65;5.60;;;;;15.60;100903.00;;;;10230135;28;20238;-80
2023/08/05 06:24:17;;;;;;;8.52;6.57;;;;;15.90;100897.00;;;;10245361;28;20222;-80
2023/08/05 06:29:18;;;;;;;7.32;5.65;;;;;16.10;100886.00;;;;10249201;28;20247;-80
2023/08/05 06:34:22;;;;;;;13.90;6.97;;;;;16.30;100899.00;;;;10271545;28;21274;-80
2023/08/05 06:39:23;;;;;;;9.13;6.50;;;;;16.40;100888.00;;;;10250423;28;20235;-80
2023/08/05 06:44:25;;;;;;;9.23;6.93;;;;;16.50;100903.00;;;;10268688;28;21742;-80
2023/08/05 06:49:26;;;;;;;8.95;7.18;;;;;16.60;100892.00;;;;10267945;28;20211;-81
2023/08/05 06:54:27;;;;;;;11.68;7.75;;;;;16.50;100900.00;;;;10248442;28;20876;-80
2023/08/05 06:59:29;;;;;;;14.45;8.75;;;;;16.60;100899.00;;;;10251726;28;20222;-80
2023/08/05 07:04:30;;;;;;;12.15;9.52;;;;;16.90;100894.00;;;;10269699;28;20223;-80
2023/08/05 07:09:32;;;;;;;14.27;8.18;;;;;17.00;100897.00;;;;10251677;28;20223;-81
2023/08/05 07:14:33;;;;;;;13.73;9.40;;;;;17.70;100867.00;;;;10269242;28;20239;-80
2023/08/05 07:19:35;;;;;;;12.43;8.80;;;;;18.60;100866.00;;;;10250208;28;20727;-80
2023/08/05 07:24:36;;;;;;;12.00;8.02;;;;;19.00;100867.00;;;;10251004;28;20899;-81
2023/08/05 07:29:41;;;;;;;12.00;7.60;;;;;19.00;100859.00;;;;10268627;28;20211;-80
2023/08/05 07:34:43;;;;;;;11.18;7.30;;;;;19.20;100852.00;;;;10268591;28;20745;-80
2023/08/05 07:39:48;;;;;;;10.18;7.65;;;;;19.50;100856.00;;;;10265656;28;20640;-80
2023/08/05 07:44:51;;;;;;;11.00;7.55;;;;;19.50;100850.00;;;;10268710;28;20219;-81
2023/08/05 07:49:52;;;;;;;9.82;6.90;;;;;19.70;100845.00;;;;10251415;28;20579;-80
2023/08/05 07:54:54;;;;;;;11.18;7.65;;;;;19.90;100834.00;;;;10265538;28;20215;-80
2023/08/05 07:59:56;;;;;;;9.65;6.15;;;;;20.20;100825.00;;;;10265608;28;20208;-80
2023/08/05 08:05:04;;;;;;;10.27;6.35;;;;;21.20;100813.00;;;;10248553;28;20317;-80
2023/08/05 08:10:06;;;;;;;7.30;4.97;;;;;23.00;100818.00;;;;10230675;28;20218;-81
2023/08/05 08:15:08;;;;;;;7.85;3.67;;;;;22.80;100811.00;;;;10263005;28;20219;-78
2023/08/05 08:20:10;;;;;;;7.68;4.18;;;;;21.70;100813.00;;;;10261421;28;20234;-82
2023/08/05 08:25:11;;;;;;;8.13;3.53;;;;;21.30;100809.00;;;;10263083;28;21264;-80
2023/08/05 08:30:13;;;;;;;5.28;3.03;;;;;21.20;100802.00;;;;10245552;28;20786;-80
2023/08/05 08:35:14;;;;;;;5.93;2.88;;;;;21.10;100779.00;;;;10230322;28;20203;-79
2023/08/05 08:40:15;;;;;;;6.95;2.83;;;;;21.20;100765.00;;;;10263175;28;20214;-80
2023/08/05 08:45:19;;;;;;;8.68;2.53;;;;;21.20;100770.00;;;;10262035;28;20889;-80
2023/08/05 08:50:21;;;;;;;6.38;2.22;;;;;21.30;100751.00;;;;10266223;28;20207;-78
2023/08/05 08:55:25;;;;;;;7.20;2.13;;;;;21.60;100749.00;;;;10229087;28;20739;-81
2023/08/05 09:00:27;;;;;;;3.22;1.83;;;;;21.40;100745.00;;;;10264795;28;20208;-81
2023/08/05 09:05:34;;;;;;;4.75;2.15;;;;;21.10;100747.00;;;;10229745;28;20232;-78
2023/08/05 09:10:37;;;;;;;3.85;1.77;;;;;21.60;100724.00;;;;10245682;28;20826;-82
2023/08/05 09:15:39;;;;;;;3.03;2.25;;;;;23.00;100719.00;;;;10228962;28;21648;-81
2023/08/05 09:20:41;;;;;;;4.40;1.65;;;;;24.70;100722.00;;;;10226831;28;20775;-81
2023/08/05 09:25:46;;;;;;;3.60;1.65;;;;;23.90;100721.00;;;;10226704;28;20235;-80
2023/08/05 09:30:47;;;;;;;4.25;2.00;;;;;23.80;100704.00;;;;10261324;28;20211;-81
2023/08/05 09:35:49;;;;;;;3.47;2.03;;;;;23.50;100691.00;;;;10241836;28;20218;-82
2023/08/05 09:40:52;;;;;;;3.15;2.05;;;;;22.80;100689.00;;;;10243605;28;20221;-81
2023/08/05 09:45:54;;;;;;;4.40;2.30;;;;;21.60;100688.00;;;;10213711;28;20234;-81
2023/08/05 09:50:58;;;;;;;3.50;2.13;;;;;21.00;100684.00;;;;10243984;28;20952;-81
2023/08/05 09:56:00;;;;;;;4.85;2.00;;;;;21.30;100674.00;;;;10220089;28;20199;-81
2023/08/05 10:01:07;;;;;;;4.88;2.28;;;;;22.50;100674.00;;;;10263129;28;20728;-80
2023/08/05 10:06:11;;;;;;;3.83;2.08;;;;;22.50;100663.00;;;;10233507;28;20249;-80
2023/08/05 10:11:14;;;;;;;3.35;2.30;;;;;22.60;100661.00;;;;10266899;28;20286;-81
2023/08/05 10:16:16;;;;;;;4.30;2.03;;;;;21.90;100680.00;;;;10269568;28;20216;-81
2023/08/05 10:21:45;;;;;;;3.38;2.28;;;;;20.80;100670.00;;;;10268510;28;20787;-80
2023/08/05 10:26:46;;;;;;;6.35;2.20;;;;;19.80;100672.00;;;;10244620;28;20231;-78
2023/08/05 10:31:48;;;;;;;2.50;2.30;;;;;21.10;100670.00;;;;10235014;28;20751;-78
2023/08/05 10:36:56;;;;;;;4.45;2.40;;;;;22.00;100669.00;;;;10269114;28;20943;-78
2023/08/05 10:42:15;;;;;;;3.22;2.42;;;;;21.50;100656.00;;;;10267242;28;20273;-80
2023/08/05 10:47:23;;;;;;;3.28;2.40;;;;;20.30;100637.00;;;;10249312;28;20246;-80
2023/08/05 10:52:26;;;;;;;5.70;2.60;;;;;19.80;100631.00;;;;10250420;28;20862;-79
2023/08/05 10:57:29;;;;;;;4.53;2.20;;;;;19.50;100623.00;;;;10266355;28;20207;-81
2023/08/05 11:02:33;;;;;;;3.17;2.40;;;;;19.00;100615.00;;;;10232889;28;20218;-81
2023/08/05 11:07:39;;;;;;;3.10;2.55;;;;;18.20;100609.00;;;;10264388;28;20226;-78
2023/08/05 11:12:41;;;;;;;6.03;2.10;;;;;17.70;100612.00;;;;10262705;28;20254;-81
2023/08/05 11:17:54;;;;;;;2.80;2.33;;;;;17.20;100589.00;;;;10263793;28;20207;-80
2023/08/05 11:22:56;;;;;;;5.35;2.30;;;;;17.00;100577.00;;;;10267410;28;20230;-80
2023/08/05 11:27:57;;;;;;;3.72;2.63;;;;;16.70;100602.00;;;;10264721;28;20223;-79
2023/08/05 11:32:59;;;;;;;5.82;2.85;;;;;16.40;100607.00;;;;10247200;28;20215;-78
2023/08/05 11:38:00;;;;;;;8.32;2.88;;;;;16.10;100613.00;;;;10262535;28;20315;-78
2023/08/05 11:43:05;;;;;;;4.97;3.10;;;;;16.00;100613.00;;;;10245525;28;20309;-79
2023/08/05 11:48:19;;;;;;;4.25;3.03;;;;;16.10;100589.00;;;;10248478;28;20223;-78
2023/08/05 11:53:20;;;;;;;7.07;2.75;;;;;16.50;100597.00;;;;10244147;28;20215;-79
2023/08/05 11:58:26;;;;;;;7.78;2.45;;;;;16.30;100590.00;;;;10262919;28;20230;-79
2023/08/05 12:03:32;;;;;;;5.43;2.90;;;;;16.30;100579.00;;;;10246306;28;20215;-78
2023/08/05 12:08:42;;;;;;;5.82;3.20;;;;;16.70;100574.00;;;;10243663;28;20580;-78
2023/08/05 12:13:45;;;;;;;4.70;3.00;;;;;16.80;100574.00;;;;10258990;28;20488;-77
2023/08/05 12:18:47;;;;;;;4.95;3.10;;;;;16.90;100561.00;;;;10259448;28;20211;-78
2023/08/05 12:23:48;;;;;;;5.18;2.85;;;;;17.40;100552.00;;;;10243439;28;20227;-78
2023/08/05 12:28:49;;;;;;;6.25;3.40;;;;;18.30;100535.00;;;;10242683;28;20294;-78
2023/08/05 12:33:51;;;;;;;5.75;3.25;;;;;18.90;100505.00;;;;10241343;28;20199;-78
2023/08/05 12:38:53;;;;;;;4.03;2.78;;;;;18.60;100499.00;;;;10244901;28;20218;-79
2023/08/05 12:43:54;;;;;;;3.88;2.30;;;;;19.10;100481.00;;;;10259895;28;20471;-80
2023/08/05 12:48:55;;;;;;;3.15;2.20;;;;;18.60;100477.00;;;;10241278;28;20207;-80
2023/08/05 12:53:56;;;;;;;5.88;2.38;;;;;18.10;100473.00;;;;10261988;28;20322;-80
2023/08/05 12:58:58;;;;;;;3.47;2.47;;;;;17.60;100468.00;;;;10226696;28;20254;-79
2023/08/05 13:03:59;;;;;;;5.50;2.50;;;;;16.80;100471.00;;;;10258896;28;20666;-79
2023/08/05 13:09:00;;;;;;;5.18;2.95;;;;;17.40;100450.00;;;;10226785;28;20544;-79
2023/08/05 13:14:01;;;;;;;6.38;3.40;;;;;18.60;100452.00;;;;10242471;28;20730;-79
2023/08/05 13:19:03;;;;;;;5.93;3.22;;;;;18.50;100438.00;;;;10259606;28;20215;-78
2023/08/05 13:24:04;;;;;;;3.55;2.40;;;;;17.70;100440.00;;;;10258359;28;20230;-79
2023/08/05 13:29:06;;;;;;;4.72;2.67;;;;;17.30;100420.00;;;;10238788;28;20621;-79
2023/08/05 13:34:07;;;;;;;4.72;2.28;;;;;17.30;100414.00;;;;10242710;28;20844;-78
2023/08/05 13:39:08;;;;;;;5.50;2.60;;;;;18.20;100404.00;;;;10255258;28;20207;-79
2023/08/05 13:44:10;;;;;;;2.67;1.77;;;;;18.30;100395.00;;;;10238293;28;20840;-79
2023/08/05 13:49:11;;;;;;;3.65;2.42;;;;;17.40;100395.00;;;;10226188;28;20242;-79
2023/08/05 13:54:13;;;;;;;3.45;2.03;;;;;16.70;100377.00;;;;10240924;28;20553;-79
2023/08/05 13:59:15;;;;;;;3.88;2.08;;;;;16.80;100378.00;;;;10221819;28;20207;-79
2023/08/05 14:04:17;;;;;;;3.55;1.90;;;;;16.70;100377.00;;;;10258091;28;20324;-78
2023/08/05 14:09:18;;;;;;;4.90;2.38;;;;;16.50;100365.00;;;;10238404;28;20211;-79
2023/08/05 14:14:19;;;;;;;3.85;2.25;;;;;16.10;100348.00;;;;10257732;28;21495;-79
2023/08/05 14:19:25;;;;;;;5.00;2.22;;;;;15.80;100360.00;;;;10256822;28;20203;-79
2023/08/05 14:24:26;;;;;;;7.82;3.10;;;;;15.90;100343.00;;;;10256103;28;20836;-78
2023/08/05 14:29:27;;;;;;;4.70;3.13;;;;;16.00;100339.00;;;;10224334;28;20325;-78
2023/08/05 14:34:28;;;;;;;7.90;3.83;;;;;16.20;100311.00;;;;10255365;28;20207;-78
2023/08/05 14:39:30;;;;;;;3.95;2.58;;;;;16.70;100298.00;;;;10256137;28;21730;-78
2023/08/05 14:44:31;;;;;;;6.78;2.80;;;;;16.30;100278.00;;;;10241660;28;20262;-80
2023/08/05 14:49:33;;;;;;;7.60;3.10;;;;;16.70;100262.00;;;;10259414;28;20697;-79
2023/08/05 14:54:34;;;;;;;4.00;2.90;;;;;17.00;100249.00;;;;10244609;28;20273;-79
2023/08/05 14:59:35;;;;;;;8.60;3.40;;;;;17.70;100232.00;;;;10247233;28;20213;-79
2023/08/05 15:04:37;;;;;;;6.00;2.88;;;;;19.00;100223.00;;;;10244471;28;20220;-79
2023/08/05 15:09:38;;;;;;;7.30;2.75;;;;;19.70;100211.00;;;;10263944;28;20834;-80
2023/08/05 15:14:39;;;;;;;3.28;2.55;;;;;19.70;100209.00;;;;10261485;28;20914;-80
2023/08/05 15:19:40;;;;;;;3.75;2.53;;;;;19.80;100202.00;;;;10261579;28;20964;-79
2023/08/05 15:24:41;;;;;;;4.70;1.90;;;;;20.00;100189.00;;;;10262804;28;21910;-81
2023/08/05 15:29:49;;;;;;;4.68;2.10;;;;;19.70;100188.00;;;;10259499;28;20703;-80
2023/08/05 15:34:50;;;;;;;3.58;2.15;;;;;19.40;100175.00;;;;10244927;28;20270;-81
2023/08/05 15:39:54;;;;;;;3.33;2.55;;;;;19.00;100172.00;;;;10248542;28;20202;-80
2023/08/05 15:44:55;;;;;;;3.28;2.08;;;;;18.40;100161.00;;;;10241694;28;20224;-79
2023/08/05 15:49:56;;;;;;;5.03;3.90;;;;;17.60;100161.00;;;;10228341;28;20239;-79
2023/08/05 15:54:57;;;;;;;5.82;3.45;;;;;17.00;100148.00;;;;10266074;28;20212;-80
2023/08/05 15:59:59;;;;;;;6.45;2.92;;;;;16.90;100132.00;;;;10211866;28;21459;-81
2023/08/05 16:05:00;;;;;;;6.20;3.00;;;;;16.80;100136.00;;;;10244588;28;21539;-81
2023/08/05 16:10:02;;;;;;;4.65;3.38;;;;;16.70;100133.00;;;;10262701;28;20207;-80
2023/08/05 16:15:05;;;;;;;4.47;3.72;;;;;17.30;100135.00;;;;10244264;28;20347;-80
2023/08/05 16:20:06;;;;;;;4.68;3.72;;;;;17.00;100121.00;;;;10247500;28;20219;-79
2023/08/05 16:25:10;;;;;;;8.50;5.22;;;;;16.60;100111.00;;;;10259853;28;20227;-79
2023/08/05 16:30:11;;;;;;;5.78;4.30;;;;;16.80;100108.00;;;;10224363;28;20199;-79
2023/08/05 16:35:13;;;;;;;5.40;3.58;;;;;17.60;100102.00;;;;10261152;28;20637;-79
2023/08/05 16:40:14;;;;;;;3.40;2.90;;;;;17.80;100089.00;;;;10241361;28;20211;-80
2023/08/05 16:45:15;;;;;;;2.97;2.25;;;;;17.10;100083.00;;;;10244173;28;20699;-80
2023/08/05 16:50:17;;;;;;;3.13;2.47;;;;;17.00;100067.00;;;;10244427;28;20266;-80
2023/08/05 16:55:18;;;;;;;4.50;3.08;;;;;17.30;100063.00;;;;10258988;28;20246;-80
2023/08/05 17:00:20;;;;;;;3.58;2.17;;;;;17.50;100042.00;;;;10240633;28;20215;-80
2023/08/05 17:05:21;;;;;;;4.68;2.17;;;;;17.60;100035.00;;;;10244065;28;20832;-78
2023/08/05 17:10:23;;;;;;;2.88;2.17;;;;;18.00;100031.00;;;;10242121;28;20601;-81
2023/08/05 17:15:25;;;;;;;3.75;2.28;;;;;18.00;100034.00;;;;10210457;28;20290;-80
2023/08/05 17:20:27;;;;;;;3.95;1.98;;;;;17.80;100025.00;;;;10241666;28;20215;-80
2023/08/05 17:25:28;;;;;;;3.88;1.90;;;;;17.30;100015.00;;;;10263830;28;20304;-79
2023/08/05 17:30:31;;;;;;;2.53;2.20;;;;;17.00;100015.00;;;;10260620;28;20691;-80
2023/08/05 17:35:34;;;;;;;3.90;2.40;;;;;16.80;99999.00;;;;10259277;28;20218;-81
2023/08/05 17:40:35;;;;;;;2.28;2.08;;;;;16.60;99999.00;;;;10260743;28;20440;-80
2023/08/05 17:45:37;;;;;;;4.35;2.28;;;;;16.60;99994.00;;;;10259153;28;20227;-80
2023/08/05 17:50:38;;;;;;;2.45;1.88;;;;;16.50;99983.00;;;;10257818;28;20689;-80
2023/08/05 17:55:39;;;;;;;4.45;2.58;;;;;16.60;99974.00;;;;10242280;28;20539;-80
2023/08/05 18:00:41;;;;;;;3.72;1.90;;;;;16.60;99980.00;;;;10259725;28;20932;-80
2023/08/05 18:05:43;;;;;;;5.25;2.42;;;;;16.50;99977.00;;;;10257629;28;20390;-79
2023/08/05 18:10:44;;;;;;;2.38;2.17;;;;;16.40;99975.00;;;;10257367;28;20234;-79
2023/08/05 18:15:45;;;;;;;3.13;2.55;;;;;16.40;99976.00;;;;10241245;28;20657;-80
2023/08/05 18:20:47;;;;;;;3.55;2.22;;;;;16.40;99969.00;;;;10260142;28;20705;-79
2023/08/05 18:25:48;;;;;;;3.08;2.45;;;;;16.20;99964.00;;;;10256817;28;20223;-79
2023/08/05 18:30:51;;;;;;;4.03;2.33;;;;;16.00;99954.00;;;;10246101;28;20215;-79
2023/08/05 18:35:53;;;;;;;5.68;2.22;;;;;15.70;99949.00;;;;10263696;28;20200;-78
2023/08/05 18:40:54;;;;;;;3.53;2.50;;;;;15.50;99958.00;;;;10243002;28;20312;-79
2023/08/05 18:45:55;;;;;;;5.07;2.78;;;;;15.40;99941.00;;;;10242706;28;21293;-80
2023/08/05 18:50:57;;;;;;;4.88;3.08;;;;;15.30;99943.00;;;;10245058;28;20489;-79
2023/08/05 18:55:58;;;;;;;3.20;2.40;;;;;15.30;99940.00;;;;10211728;28;20230;-79
2023/08/05 19:01:06;;;;;;;5.40;2.70;;;;;15.20;99931.00;;;;10228003;28;20333;-78
2023/08/05 19:06:07;;;;;;;5.30;3.90;;;;;15.20;99924.00;;;;10260880;28;20230;-78
2023/08/05 19:11:13;;;;;;;3.75;2.65;;;;;15.20;99925.00;;;;10262320;28;20620;-78
2023/08/05 19:16:15;;;;;;;5.03;3.03;;;;;15.20;99915.00;;;;10229285;28;20271;-79
2023/08/05 19:21:16;;;;;;;3.00;2.45;;;;;15.20;99927.00;;;;10260517;28;20254;-79
2023/08/05 19:26:17;;;;;;;4.75;2.75;;;;;15.20;99916.00;;;;10259333;28;21188;-78
2023/08/05 19:31:18;;;;;;;6.22;3.03;;;;;15.20;99919.00;;;;10262908;28;20991;-78
2023/08/05 19:36:20;;;;;;;4.30;2.40;;;;;15.20;99916.00;;;;10241220;28;20219;-79
2023/08/05 19:41:21;;;;;;;3.20;2.90;;;;;15.10;99911.00;;;;10240418;28;20224;-79
2023/08/05 19:46:23;;;;;;;4.82;2.65;;;;;15.10;99904.00;;;;10259813;28;20227;-79
2023/08/05 19:51:24;;;;;;;4.43;3.00;;;;;15.10;99905.00;;;;10241056;28;20231;-79
2023/08/05 19:56:25;;;;;;;7.25;3.55;;;;;15.10;99905.00;;;;10257986;28;20262;-79
2023/08/05 20:01:26;;;;;;;3.40;2.60;;;;;15.00;99901.00;;;;10241282;28;20334;-79
2023/08/05 20:06:28;;;;;;;4.35;2.65;;;;;15.00;99910.00;;;;10260823;28;21047;-80
2023/08/05 20:11:29;;;;;;;3.65;2.50;;;;;14.90;99899.00;;;;10209861;28;20222;-81
2023/08/05 20:16:30;;;;;;;4.70;2.22;;;;;14.90;99904.00;;;;10223837;28;21555;-80
2023/08/05 20:21:32;;;;;;;3.33;2.25;;;;;14.90;99887.00;;;;10225594;28;22010;-79
2023/08/05 20:26:33;;;;;;;3.20;2.60;;;;;14.90;99889.00;;;;10241377;28;20640;-80
2023/08/05 20:31:35;;;;;;;3.05;2.25;;;;;14.90;99883.00;;;;10223751;28;20898;-79
2023/08/05 20:36:36;;;;;;;2.72;2.40;;;;;14.90;99883.00;;;;10258086;28;21421;-79
2023/08/05 20:41:37;;;;;;;4.22;2.50;;;;;14.80;99869.00;;;;10243043;28;20806;-78
2023/08/05 20:46:38;;;;;;;4.50;2.60;;;;;14.80;99871.00;;;;10257948;28;20317;-79
2023/08/05 20:51:41;;;;;;;13.57;2.85;;;;;14.70;99862.00;;;;10240629;28;20222;-78
2023/08/05 20:56:43;;;;;;;3.05;2.45;;;;;14.70;99845.00;;;;10219697;28;20552;-78
2023/08/05 21:01:44;;;;;;;4.60;2.63;;;;;14.60;99844.00;;;;10223920;28;20203;-78
2023/08/05 21:06:46;;;;;;;4.78;2.30;;;;;14.60;99838.00;;;;10258355;28;20556;-78
2023/08/05 21:11:47;;;;;;;3.15;1.80;;;;;14.60;99831.00;;;;10257480;28;20415;-78
2023/08/05 21:16:49;;;;;;;2.17;2.03;;;;;14.60;99826.00;;;;10261126;28;20215;-78
2023/08/05 21:21:50;;;;;;;1.77;1.67;;;;;14.60;99822.00;;;;10240418;28;20303;-78
2023/08/05 21:26:52;;;;;;;2.75;1.83;;;;;14.60;99827.00;;;;10240731;28;20230;-78
2023/08/05 21:31:53;;;;;;;2.00;1.80;;;;;14.50;99822.00;;;;10259374;28;20286;-79
2023/08/05 21:36:55;;;;;;;3.10;2.17;;;;;14.50;99801.00;;;;10239975;28;21677;-81
2023/08/05 21:41:56;;;;;;;7.00;2.30;;;;;14.60;99796.00;;;;10240154;28;20207;-79
2023/08/05 21:46:57;;;;;;;5.15;1.98;;;;;14.60;99794.00;;;;10259248;28;20318;-79
2023/08/05 21:51:59;;;;;;;2.85;2.10;;;;;14.60;99791.00;;;;10258107;28;20215;-79
2023/08/05 21:57:00;;;;;;;3.42;2.28;;;;;14.70;99801.00;;;;10260102;28;20903;-80
2023/08/05 22:02:01;;;;;;;6.20;2.35;;;;;14.70;99796.00;;;;10266899;28;20333;-79
2023/08/05 22:07:04;;;;;;;3.72;2.00;;;;;14.70;99787.00;;;;10231877;28;20644;-79
2023/08/05 22:12:07;;;;;;;6.03;1.95;;;;;14.70;99790.00;;;;10230330;28;20219;-79
2023/08/05 22:17:08;;;;;;;3.45;2.25;;;;;14.70;99792.00;;;;10232010;28;20203;-79
2023/08/05 22:22:09;;;;;;;5.18;2.50;;;;;14.60;99787.00;;;;10228991;28;20215;-78
2023/08/05 22:27:11;;;;;;;8.73;3.28;;;;;14.60;99776.00;;;;10262885;28;20488;-78
2023/08/05 22:32:12;;;;;;;7.00;2.90;;;;;14.60;99779.00;;;;10263263;28;20764;-79
2023/08/05 22:37:14;;;;;;;9.82;2.83;;;;;14.50;99772.00;;;;10228573;28;20215;-79
2023/08/05 22:42:15;;;;;;;7.55;3.00;;;;;14.50;99776.00;;;;10246291;28;20432;-79
2023/08/05 22:47:16;;;;;;;7.10;2.85;;;;;14.50;99768.00;;;;10262363;28;21387;-79
2023/08/05 22:52:18;;;;;;;8.93;2.90;;;;;14.50;99763.00;;;;10263671;28;20613;-79
2023/08/05 22:57:19;;;;;;;3.92;2.03;;;;;14.50;99759.00;;;;10261585;28;20443;-79
2023/08/05 23:02:20;;;;;;;3.97;2.00;;;;;14.40;99766.00;;;;10243829;28;20238;-79
2023/08/05 23:07:21;;;;;;;3.33;1.80;;;;;14.40;99767.00;;;;10244013;28;20625;-78
2023/08/05 23:12:23;;;;;;;5.32;1.77;;;;;14.40;99753.00;;;;10242470;28;20215;-79
2023/08/05 23:17:25;;;;;;;4.63;1.80;;;;;14.40;99752.00;;;;10226351;28;20212;-79
2023/08/05 23:22:26;;;;;;;2.72;2.00;;;;;14.40;99751.00;;;;10261589;28;20858;-79
2023/08/05 23:27:28;;;;;;;5.65;1.70;;;;;14.40;99740.00;;;;10258762;28;20277;-78
2023/08/05 23:32:29;;;;;;;3.75;1.40;;;;;14.40;99747.00;;;;10228009;28;20208;-79
2023/08/05 23:37:30;;;;;;;4.50;1.90;;;;;14.40;99741.00;;;;10242065;28;20230;-77
2023/08/05 23:42:32;;;;;;;7.00;1.63;;;;;14.40;99744.00;;;;10258824;28;20207;-79
2023/08/05 23:47:33;;;;;;;8.90;1.65;;;;;14.40;99743.00;;;;10240653;28;20541;-78
2023/08/05 23:52:34;;;;;;;5.97;1.63;;;;;14.40;99739.00;;;;10259608;28;20227;-78
2023/08/05 23:57:36;;;;;;;4.72;1.48;;;;;14.40;99736.00;;;;10258237;28;21653;-78
